Terminal Aerodrome Forecast
Issued by NWS Topeka, KS

Home | Current Version | Previous Version | Graphics & Text | Print | Product List | Glossary On
Versions: 1 2 3 4 5 6 7 8 9 10 11 12
000
FTUS43 KTOP 201738
TAFTOP
TAF
KTOP 201738Z 2018/2118 20012KT P6SM SCT030
     FM202300 04004KT P6SM SCT030
     FM211500 17010KT P6SM SCT030=

USA.gov is the U.S. government's official web portal to all federal, state and local government web resources and services.